createdAt,value
2017-02-01T00:00:24.347Z,0
2017-02-01T00:01:05.003Z,0
2017-02-01T00:01:45.606Z,0
2017-02-01T00:02:26.317Z,0
2017-02-01T00:03:07.999Z,0
2017-02-01T00:03:48.621Z,0
2017-02-01T00:04:29.292Z,0
2017-02-01T00:05:10.972Z,0
2017-02-01T00:05:52.655Z,0
2017-02-01T00:06:33.349Z,0
2017-02-01T00:07:14.063Z,0
2017-02-01T00:07:54.690Z,0
2017-02-01T00:08:35.360Z,0
2017-02-01T00:09:16.022Z,0
2017-02-01T00:09:56.663Z,0
2017-02-01T00:10:37.327Z,0
2017-02-01T00:11:17.967Z,0
2017-02-01T00:11:58.622Z,0
2017-02-01T00:12:39.288Z,0
2017-02-01T00:13:19.940Z,0
2017-02-01T00:14:00.591Z,0
2017-02-01T00:14:41.237Z,0
2017-02-01T00:15:21.888Z,0
2017-02-01T00:16:02.536Z,0
2017-02-01T00:16:43.205Z,0
2017-02-01T00:17:23.960Z,0
2017-02-01T00:18:04.612Z,0
2017-02-01T00:18:45.263Z,0
2017-02-01T00:19:25.917Z,0
2017-02-01T00:20:06.571Z,0
2017-02-01T00:20:47.223Z,0
2017-02-01T00:21:27.876Z,0
2017-02-01T00:22:08.448Z,0
2017-02-01T00:22:49.182Z,0
2017-02-01T00:23:29.868Z,0
2017-02-01T00:24:10.453Z,0
2017-02-01T00:24:51.135Z,0
2017-02-01T00:25:31.788Z,0
2017-02-01T00:26:12.360Z,0
2017-02-01T00:26:53.100Z,0
2017-02-01T00:27:33.745Z,0
2017-02-01T00:28:14.398Z,0
2017-02-01T00:28:55.058Z,0
2017-02-01T00:29:35.735Z,0
2017-02-01T00:30:16.364Z,0
2017-02-01T00:30:56.932Z,0
2017-02-01T00:31:37.631Z,0
2017-02-01T00:32:18.316Z,0
2017-02-01T00:32:58.972Z,0
2017-02-01T00:33:39.546Z,0
2017-02-01T00:34:20.241Z,0
2017-02-01T00:35:00.934Z,0
2017-02-01T00:35:41.584Z,0
2017-02-01T00:36:22.160Z,0
2017-02-01T00:37:02.844Z,0
2017-02-01T00:37:43.539Z,0
2017-02-01T00:38:24.197Z,0
2017-02-01T00:39:04.747Z,0
2017-02-01T00:39:46.471Z,0
2017-02-01T00:40:27.171Z,0
2017-02-01T00:41:07.831Z,0
2017-02-01T00:41:48.483Z,0
2017-02-01T00:42:29.138Z,0
2017-02-01T00:43:09.793Z,0
2017-02-01T00:43:50.445Z,0
2017-02-01T00:44:31.087Z,0
2017-02-01T00:45:11.742Z,0
2017-02-01T00:45:52.410Z,0
2017-02-01T00:46:33.046Z,0
2017-02-01T00:47:13.709Z,0
2017-02-01T00:47:54.361Z,0
2017-02-01T00:48:37.078Z,0
2017-02-01T00:49:17.723Z,0
2017-02-01T00:49:59.392Z,0
2017-02-01T00:50:40.043Z,0
2017-02-01T00:51:20.596Z,0
2017-02-01T00:52:01.303Z,0
2017-02-01T00:52:42.011Z,0
2017-02-01T00:53:22.656Z,0
2017-02-01T00:54:03.227Z,0
2017-02-01T00:54:44.918Z,0
2017-02-01T00:55:25.654Z,0
2017-02-01T00:56:08.336Z,0
2017-02-01T00:56:48.888Z,0
2017-02-01T00:57:30.620Z,0
2017-02-01T00:58:11.317Z,0
2017-02-01T00:58:51.970Z,0
2017-02-01T00:59:32.525Z,0
2017-02-01T01:00:13.237Z,0
2017-02-01T01:00:53.942Z,0
2017-02-01T01:01:34.592Z,0
2017-02-01T01:02:15.349Z,0
2017-02-01T01:02:56.004Z,0
2017-02-01T01:03:36.750Z,0
2017-02-01T01:04:17.394Z,0
2017-02-01T01:04:58.085Z,0
2017-02-01T01:05:38.810Z,0
2017-02-01T01:06:19.378Z,0
2017-02-01T01:07:00.071Z,0
2017-02-01T01:07:40.793Z,0
2017-02-01T01:08:21.531Z,0
2017-02-01T01:09:02.110Z,0
2017-02-01T01:09:43.805Z,0
2017-02-01T01:10:24.514Z,0
2017-02-01T01:11:05.166Z,0
2017-02-01T01:11:45.736Z,0
2017-02-01T01:12:28.470Z,0
2017-02-01T01:13:09.166Z,0
2017-02-01T01:13:49.825Z,0
2017-02-01T01:14:30.383Z,0
2017-02-01T01:15:13.126Z,0
2017-02-01T01:15:53.827Z,0
2017-02-01T01:16:34.478Z,0
2017-02-01T01:17:15.051Z,0
2017-02-01T01:17:55.782Z,0
2017-02-01T01:18:36.434Z,0
2017-02-01T01:19:17.000Z,0
2017-02-01T01:19:57.633Z,0
2017-02-01T01:20:38.299Z,0
2017-02-01T01:21:18.858Z,0
2017-02-01T01:21:59.496Z,0
2017-02-01T01:22:40.154Z,0
2017-02-01T01:23:20.707Z,0
2017-02-01T01:24:01.412Z,0
2017-02-01T01:24:42.104Z,0
2017-02-01T01:25:22.883Z,0
2017-02-01T01:26:03.443Z,0
2017-02-01T01:26:44.126Z,0
2017-02-01T01:27:24.814Z,0
2017-02-01T01:28:20.125Z,0
2017-02-01T01:29:00.769Z,0
2017-02-01T01:29:41.348Z,0
2017-02-01T01:30:22.029Z,0
2017-02-01T01:31:02.733Z,0
2017-02-01T01:31:43.489Z,0
2017-02-01T01:32:24.061Z,0
2017-02-01T01:33:04.745Z,0
2017-02-01T01:33:45.442Z,0
2017-02-01T01:34:26.092Z,0
2017-02-01T01:35:06.675Z,0
2017-02-01T01:35:47.357Z,0
2017-02-01T01:36:28.062Z,0
2017-02-01T01:37:08.710Z,0
2017-02-01T01:37:49.364Z,0
2017-02-01T01:38:30.009Z,0
2017-02-01T01:39:10.668Z,0
2017-02-01T01:39:51.321Z,0
2017-02-01T01:40:31.975Z,0
2017-02-01T01:41:12.736Z,0
2017-02-01T01:41:53.383Z,0
2017-02-01T01:42:33.952Z,0
2017-02-01T01:43:14.638Z,0
2017-02-01T01:43:55.341Z,0
2017-02-01T01:44:35.993Z,0
2017-02-01T01:45:16.565Z,0
2017-02-01T01:45:57.242Z,0
2017-02-01T01:46:37.954Z,0
2017-02-01T01:47:18.619Z,0
2017-02-01T01:47:59.170Z,0
2017-02-01T01:48:39.861Z,0
2017-02-01T01:49:20.564Z,0
2017-02-01T01:50:01.232Z,0
2017-02-01T01:50:41.790Z,0
2017-02-01T01:51:22.473Z,0
2017-02-01T01:52:03.145Z,0
2017-02-01T01:52:43.783Z,0
2017-02-01T01:53:24.453Z,0
2017-02-01T01:54:05.082Z,0
2017-02-01T01:54:45.752Z,0
2017-02-01T01:55:26.493Z,0
2017-02-01T01:56:07.144Z,0
2017-02-01T01:56:47.845Z,0
2017-02-01T01:57:28.425Z,0
2017-02-01T01:58:09.152Z,0
2017-02-01T01:58:49.805Z,0
2017-02-01T01:59:30.380Z,0
2017-02-01T02:00:11.114Z,0
2017-02-01T02:00:51.869Z,0
2017-02-01T02:01:32.436Z,0
2017-02-01T02:02:13.173Z,0
2017-02-01T02:02:53.883Z,0
2017-02-01T02:03:34.594Z,0
2017-02-01T02:04:15.335Z,0
2017-02-01T02:04:56.009Z,0
2017-02-01T02:05:36.641Z,0
2017-02-01T02:06:17.410Z,0
2017-02-01T02:06:58.051Z,0
2017-02-01T02:07:38.701Z,0
2017-02-01T02:08:19.454Z,0
2017-02-01T02:09:00.111Z,0
2017-02-01T02:09:40.845Z,0
2017-02-01T02:10:21.516Z,0
2017-02-01T02:11:02.190Z,0
2017-02-01T02:11:42.924Z,0
2017-02-01T02:12:23.684Z,0
2017-02-01T02:13:04.446Z,0
2017-02-01T02:13:45.191Z,0
2017-02-01T02:14:25.955Z,0
2017-02-01T02:15:06.707Z,0
2017-02-01T02:15:47.457Z,0
2017-02-01T02:16:28.221Z,0
2017-02-01T02:17:08.967Z,0
2017-02-01T02:17:49.739Z,0
2017-02-01T02:18:30.475Z,0
2017-02-01T02:19:12.164Z,0
2017-02-01T02:19:52.920Z,0
2017-02-01T02:20:33.662Z,0
2017-02-01T02:21:14.317Z,0
2017-02-01T02:21:54.979Z,0
2017-02-01T02:22:35.829Z,0
2017-02-01T02:23:16.584Z,0
2017-02-01T02:23:57.345Z,0
2017-02-01T02:24:38.091Z,0
2017-02-01T02:25:18.746Z,0
2017-02-01T02:25:59.411Z,0
2017-02-01T02:26:39.983Z,0
2017-02-01T02:27:20.660Z,0
2017-02-01T02:28:01.365Z,0
2017-02-01T02:28:42.119Z,0
2017-02-01T02:29:22.689Z,0
2017-02-01T02:30:03.384Z,0
2017-02-01T02:30:44.075Z,0
2017-02-01T02:31:24.737Z,0
2017-02-01T02:32:05.308Z,0
2017-02-01T02:32:45.969Z,0
2017-02-01T02:33:26.688Z,0
2017-02-01T02:34:07.260Z,0
2017-02-01T02:34:49.021Z,0
2017-02-01T02:35:30.694Z,0
2017-02-01T02:36:11.266Z,0
2017-02-01T02:36:52.008Z,0
2017-02-01T02:37:32.751Z,0
2017-02-01T02:38:13.308Z,0
2017-02-01T02:38:54.018Z,0
2017-02-01T02:39:34.723Z,0
2017-02-01T02:40:15.471Z,0
2017-02-01T02:40:56.048Z,0
2017-02-01T02:41:36.718Z,0
2017-02-01T02:42:17.390Z,0
2017-02-01T02:42:58.136Z,0
2017-02-01T02:43:38.704Z,0
2017-02-01T02:44:19.453Z,0
2017-02-01T02:45:00.195Z,0
2017-02-01T02:45:40.841Z,0
2017-02-01T02:46:21.489Z,0
2017-02-01T02:47:03.225Z,0
2017-02-01T02:47:44.854Z,0
2017-02-01T02:48:25.509Z,0
2017-02-01T02:49:06.280Z,0
2017-02-01T02:49:47.038Z,0
2017-02-01T02:50:29.624Z,0
2017-02-01T02:51:10.379Z,0
2017-02-01T02:51:51.080Z,0
2017-02-01T02:52:31.840Z,0
2017-02-01T02:53:12.410Z,0
2017-02-01T02:53:53.126Z,0
2017-02-01T02:54:33.782Z,0
2017-02-01T02:55:14.555Z,0
2017-02-01T02:55:55.127Z,0
2017-02-01T02:56:35.820Z,0
2017-02-01T02:57:16.508Z,0
2017-02-01T02:57:57.074Z,0
2017-02-01T02:58:37.819Z,0
2017-02-01T02:59:18.487Z,0
2017-02-01T02:59:59.050Z,0
2017-02-01T03:00:40.798Z,0
2017-02-01T03:01:26.023Z,0
2017-02-01T03:02:06.585Z,0
2017-02-01T03:02:47.189Z,0
2017-02-01T03:03:29.786Z,0
2017-02-01T03:04:10.358Z,0
2017-02-01T03:04:51.049Z,0
2017-02-01T03:05:36.457Z,0
2017-02-01T03:06:23.664Z,0
2017-02-01T03:07:04.336Z,0
2017-02-01T03:07:56.751Z,0
2017-02-01T03:08:37.398Z,0
2017-02-01T03:09:19.997Z,0
2017-02-01T03:10:02.595Z,0
2017-02-01T03:10:43.249Z,0
2017-02-01T03:11:24.923Z,0
2017-02-01T03:12:05.577Z,0
2017-02-01T03:12:46.223Z,0
2017-02-01T03:13:27.906Z,0
2017-02-01T03:14:10.505Z,0
2017-02-01T03:14:51.166Z,0
2017-02-01T03:15:37.649Z,0
2017-02-01T03:16:18.305Z,0
2017-02-01T03:16:58.873Z,0
2017-02-01T03:17:39.505Z,0
2017-02-01T03:18:20.161Z,0
2017-02-01T03:19:00.748Z,0
2017-02-01T03:19:41.365Z,0
2017-02-01T03:20:22.019Z,0
2017-02-01T03:21:02.592Z,0
2017-02-01T03:21:43.220Z,0
2017-02-01T03:22:23.872Z,0
2017-02-01T03:23:04.430Z,0
2017-02-01T03:23:45.072Z,0
2017-02-01T03:24:25.737Z,0
2017-02-01T03:25:06.307Z,0
2017-02-01T03:25:48.982Z,0
2017-02-01T03:26:30.654Z,0
2017-02-01T03:27:11.310Z,0
2017-02-01T03:27:56.682Z,0
2017-02-01T03:28:38.351Z,0
2017-02-01T03:29:19.002Z,0
2017-02-01T03:30:00.678Z,0
2017-02-01T03:30:47.179Z,0
2017-02-01T03:31:29.769Z,0
2017-02-01T03:32:10.422Z,0
2017-02-01T03:32:52.095Z,0
2017-02-01T03:33:33.778Z,0
2017-02-01T03:34:15.450Z,0
2017-02-01T03:34:56.107Z,0
2017-02-01T03:35:36.759Z,0
2017-02-01T03:36:22.225Z,0
2017-02-01T03:37:02.803Z,0
2017-02-01T03:37:43.474Z,0
2017-02-01T03:38:25.099Z,0
2017-02-01T03:39:05.752Z,0
2017-02-01T03:39:46.340Z,0
2017-02-01T03:40:28.962Z,0
2017-02-01T03:41:10.585Z,0
2017-02-01T03:41:56.239Z,0
2017-02-01T03:42:36.913Z,0
2017-02-01T03:43:17.563Z,0
2017-02-01T03:43:58.221Z,0
2017-02-01T03:44:38.870Z,0
2017-02-01T03:45:19.517Z,0
2017-02-01T03:46:00.174Z,0
2017-02-01T03:46:42.781Z,0
2017-02-01T03:47:24.451Z,0
2017-02-01T03:48:06.129Z,0
2017-02-01T03:48:46.778Z,0
2017-02-01T03:49:29.475Z,0
2017-02-01T03:50:10.130Z,0
2017-02-01T03:50:51.808Z,0
2017-02-01T03:51:32.385Z,0
2017-02-01T03:52:13.053Z,0
2017-02-01T03:52:54.686Z,0
2017-02-01T03:53:36.367Z,0
2017-02-01T03:54:16.938Z,0
2017-02-01T03:55:02.107Z,0
2017-02-01T03:55:42.725Z,0
2017-02-01T03:56:23.379Z,0
2017-02-01T03:57:04.035Z,0
2017-02-01T03:57:45.707Z,0
2017-02-01T03:58:26.370Z,0
2017-02-01T03:59:07.015Z,0
2017-02-01T03:59:47.680Z,0
2017-02-01T04:00:28.325Z,0
2017-02-01T04:01:08.976Z,0
2017-02-01T04:01:49.524Z,0
2017-02-01T04:02:34.992Z,0
2017-02-01T04:03:15.647Z,0
2017-02-01T04:03:56.212Z,0
2017-02-01T04:04:38.889Z,0
2017-02-01T04:05:20.572Z,0
2017-02-01T04:06:01.154Z,0
2017-02-01T04:06:41.770Z,0
2017-02-01T04:07:22.425Z,0
2017-02-01T04:08:03.005Z,0
2017-02-01T04:08:44.715Z,0
2017-02-01T04:09:26.343Z,0
2017-02-01T04:10:13.741Z,0
2017-02-01T04:10:54.315Z,0
2017-02-01T04:11:35.002Z,0
2017-02-01T04:12:16.626Z,0
2017-02-01T04:12:57.184Z,0
2017-02-01T04:13:37.824Z,0
2017-02-01T04:14:19.501Z,0
2017-02-01T04:15:00.081Z,0
2017-02-01T04:15:40.704Z,0
2017-02-01T04:16:21.379Z,0
2017-02-01T04:17:01.939Z,0
2017-02-01T04:17:42.571Z,0
2017-02-01T04:18:27.726Z,0
2017-02-01T04:19:08.293Z,0
2017-02-01T04:19:50.973Z,0
2017-02-01T04:20:38.185Z,0
2017-02-01T04:21:18.741Z,0
2017-02-01T04:21:59.382Z,0
2017-02-01T04:22:40.035Z,0
2017-02-01T04:23:20.610Z,96
2017-02-01T04:24:06.119Z,0
2017-02-01T04:24:46.783Z,0
2017-02-01T04:25:27.464Z,0
2017-02-01T04:26:08.033Z,0
2017-02-01T04:26:53.691Z,0
2017-02-01T04:27:36.395Z,0
2017-02-01T04:28:18.059Z,0
2017-02-01T04:29:00.655Z,0
2017-02-01T04:29:41.309Z,0
2017-02-01T04:30:21.975Z,0
2017-02-01T04:31:02.625Z,0
2017-02-01T04:31:43.286Z,0
2017-02-01T04:32:23.934Z,0
2017-02-01T04:33:04.588Z,0
2017-02-01T04:33:45.230Z,0
2017-02-01T04:34:25.889Z,0
2017-02-01T04:35:06.555Z,0
2017-02-01T04:35:49.257Z,0
2017-02-01T04:36:29.901Z,0
2017-02-01T04:37:17.212Z,0
2017-02-01T04:38:03.696Z,0
2017-02-01T04:38:44.352Z,0
2017-02-01T04:39:25.007Z,0
2017-02-01T04:40:16.170Z,0
2017-02-01T04:40:58.803Z,0
2017-02-01T04:41:40.489Z,0
2017-02-01T04:42:21.135Z,0
2017-02-01T04:43:01.791Z,0
2017-02-01T04:43:43.465Z,0
2017-02-01T04:44:28.719Z,0
2017-02-01T04:45:11.428Z,0
2017-02-01T04:45:52.079Z,0
2017-02-01T04:46:32.727Z,0
2017-02-01T04:47:13.385Z,0
2017-02-01T04:47:54.047Z,0
2017-02-01T04:48:35.716Z,0
2017-02-01T04:49:16.374Z,0
2017-02-01T04:49:57.032Z,0
2017-02-01T04:50:37.673Z,0
2017-02-01T04:51:19.358Z,0
2017-02-01T04:51:59.937Z,0
2017-02-01T04:52:40.600Z,0
2017-02-01T04:53:26.049Z,0
2017-02-01T04:54:08.730Z,0
2017-02-01T04:54:49.314Z,92
2017-02-01T04:55:29.971Z,96
2017-02-01T04:56:11.589Z,0
2017-02-01T04:56:53.255Z,0
2017-02-01T04:57:36.562Z,0
2017-02-01T04:58:17.220Z,0
2017-02-01T04:58:57.876Z,0
2017-02-01T04:59:38.527Z,0
2017-02-01T05:00:19.181Z,0
2017-02-01T05:00:59.842Z,0
2017-02-01T05:01:40.486Z,0
2017-02-01T05:02:21.072Z,0
2017-02-01T05:03:01.696Z,0
2017-02-01T05:03:42.245Z,0
2017-02-01T05:04:22.836Z,0
2017-02-01T05:05:03.447Z,0
2017-02-01T05:05:44.095Z,0
2017-02-01T05:06:24.651Z,0
2017-02-01T05:07:05.253Z,0
2017-02-01T05:07:45.850Z,0
2017-02-01T05:08:26.501Z,0
2017-02-01T05:09:07.075Z,0
2017-02-01T05:09:47.772Z,0
2017-02-01T05:10:28.356Z,0
2017-02-01T05:11:09.011Z,0
2017-02-01T05:11:49.583Z,0
2017-02-01T05:12:30.278Z,0
2017-02-01T05:13:10.925Z,0
2017-02-01T05:13:51.577Z,0
2017-02-01T05:14:32.233Z,88
2017-02-01T05:15:12.888Z,0
2017-02-01T05:15:53.538Z,0
2017-02-01T05:16:34.199Z,0
2017-02-01T05:17:14.887Z,0
2017-02-01T05:17:55.539Z,0
2017-02-01T05:18:36.194Z,0
2017-02-01T05:19:16.847Z,0
2017-02-01T05:19:57.498Z,0
2017-02-01T05:20:38.160Z,0
2017-02-01T05:21:18.803Z,0
2017-02-01T05:21:59.458Z,0
2017-02-01T05:22:40.112Z,0
2017-02-01T05:23:20.769Z,0
2017-02-01T05:24:01.419Z,0
2017-02-01T05:24:42.068Z,0
2017-02-01T05:25:22.735Z,0
2017-02-01T05:26:03.375Z,0
2017-02-01T05:26:43.937Z,0
2017-02-01T05:27:24.544Z,0
2017-02-01T05:28:05.224Z,0
2017-02-01T05:28:45.882Z,0
2017-02-01T05:29:26.453Z,0
2017-02-01T05:30:07.043Z,0
2017-02-01T05:30:47.644Z,0
2017-02-01T05:31:28.294Z,0
2017-02-01T05:32:08.873Z,0
2017-02-01T05:32:49.550Z,0
2017-02-01T05:33:30.143Z,0
2017-02-01T05:34:10.802Z,0
2017-02-01T05:34:51.385Z,92
2017-02-01T05:35:32.062Z,96
2017-02-01T05:36:12.651Z,0
2017-02-01T05:36:53.314Z,0
2017-02-01T05:37:33.884Z,0
2017-02-01T05:38:14.582Z,0
2017-02-01T05:38:55.172Z,0
2017-02-01T05:39:35.823Z,0
2017-02-01T05:40:16.398Z,0
2017-02-01T05:40:57.080Z,0
2017-02-01T05:41:37.681Z,0
2017-02-01T05:42:18.335Z,0
2017-02-01T05:42:58.904Z,0
2017-02-01T05:43:39.595Z,0
2017-02-01T05:44:20.282Z,0
2017-02-01T05:45:00.946Z,0
2017-02-01T05:45:41.517Z,0
2017-02-01T05:46:22.149Z,0
2017-02-01T05:47:02.800Z,0
2017-02-01T05:47:43.453Z,0
2017-02-01T05:48:24.109Z,0
2017-02-01T05:49:04.760Z,0
2017-02-01T05:49:45.423Z,0
2017-02-01T05:50:26.066Z,0
2017-02-01T05:51:06.731Z,0
2017-02-01T05:51:47.288Z,0
2017-02-01T05:52:27.974Z,0
2017-02-01T05:53:08.574Z,0
2017-02-01T05:53:49.150Z,0
2017-02-01T05:54:29.776Z,0
2017-02-01T05:55:10.691Z,0
2017-02-01T05:55:51.252Z,0
2017-02-01T05:56:31.952Z,0
2017-02-01T05:57:12.595Z,0
2017-02-01T05:57:53.258Z,0
2017-02-01T05:58:33.899Z,96
2017-02-01T05:59:14.557Z,96
2017-02-01T05:59:55.220Z,0
2017-02-01T06:00:35.866Z,0
2017-02-01T06:01:16.541Z,0
2017-02-01T06:01:57.172Z,0
2017-02-01T06:02:37.926Z,0
2017-02-01T06:03:18.602Z,0
2017-02-01T06:03:59.234Z,0
2017-02-01T06:04:39.884Z,0
2017-02-01T06:05:20.525Z,0
2017-02-01T06:06:01.183Z,0
2017-02-01T06:06:41.766Z,0
2017-02-01T06:07:22.429Z,0
2017-02-01T06:08:03.041Z,0
2017-02-01T06:08:43.726Z,0
2017-02-01T06:09:24.335Z,0
2017-02-01T06:10:04.957Z,0
2017-02-01T06:10:45.638Z,0
2017-02-01T06:11:26.317Z,0
2017-02-01T06:12:06.881Z,0
2017-02-01T06:12:47.557Z,0
2017-02-01T06:13:28.222Z,0
2017-02-01T06:14:08.876Z,0
2017-02-01T06:14:49.520Z,0
2017-02-01T06:15:30.178Z,0
2017-02-01T06:16:10.824Z,0
2017-02-01T06:16:51.488Z,0
2017-02-01T06:17:32.088Z,0
2017-02-01T06:18:12.638Z,0
2017-02-01T06:18:53.296Z,0
2017-02-01T06:19:33.944Z,0
2017-02-01T06:20:14.508Z,0
2017-02-01T06:20:55.150Z,0
2017-02-01T06:21:35.799Z,0
2017-02-01T06:22:16.476Z,0
2017-02-01T06:22:57.101Z,0
2017-02-01T06:23:37.755Z,0
2017-02-01T06:24:18.410Z,0
2017-02-01T06:24:59.054Z,0
2017-02-01T06:25:39.719Z,0
2017-02-01T06:26:20.369Z,0
2017-02-01T06:27:00.923Z,0
2017-02-01T06:27:41.621Z,0
2017-02-01T06:28:22.225Z,0
2017-02-01T06:29:02.878Z,0
2017-02-01T06:29:43.431Z,0
2017-02-01T06:30:24.119Z,0
2017-02-01T06:31:04.732Z,0
2017-02-01T06:31:45.386Z,0
2017-02-01T06:32:26.029Z,0
2017-02-01T06:33:06.687Z,0
2017-02-01T06:33:47.339Z,0
2017-02-01T06:34:27.995Z,0
2017-02-01T06:35:08.672Z,0
2017-02-01T06:35:49.303Z,0
2017-02-01T06:36:29.937Z,0
2017-02-01T06:37:10.608Z,0
2017-02-01T06:37:51.259Z,0
2017-02-01T06:38:31.919Z,0
2017-02-01T06:39:12.569Z,0
2017-02-01T06:39:53.214Z,0
2017-02-01T06:40:33.871Z,0
2017-02-01T06:41:14.525Z,4
2017-02-01T06:41:55.117Z,4
2017-02-01T06:42:35.779Z,4
2017-02-01T06:43:16.472Z,4
2017-02-01T06:43:57.135Z,4
2017-02-01T06:44:37.703Z,0
2017-02-01T06:45:18.456Z,0
2017-02-01T06:45:59.092Z,4
2017-02-01T06:46:39.747Z,4
2017-02-01T06:47:20.399Z,4
2017-02-01T06:48:01.051Z,8
2017-02-01T06:48:41.704Z,4
2017-02-01T06:49:22.354Z,4
2017-02-01T06:50:03.007Z,8
2017-02-01T06:50:43.666Z,8
2017-02-01T06:51:24.302Z,8
2017-02-01T06:52:04.972Z,8
2017-02-01T06:52:45.616Z,12
2017-02-01T06:53:26.269Z,8
2017-02-01T06:54:06.931Z,8
2017-02-01T06:54:47.578Z,12
2017-02-01T06:55:28.232Z,12
2017-02-01T06:56:08.880Z,12
2017-02-01T06:56:49.541Z,16
2017-02-01T06:57:30.194Z,16
2017-02-01T06:58:10.845Z,20
2017-02-01T06:58:51.494Z,20
2017-02-01T06:59:32.149Z,24
2017-02-01T07:00:12.797Z,24
2017-02-01T07:00:53.460Z,24
2017-02-01T07:01:34.113Z,28
2017-02-01T07:02:14.763Z,32
2017-02-01T07:02:55.419Z,36
2017-02-01T07:03:36.059Z,36
2017-02-01T07:04:16.726Z,40
2017-02-01T07:04:57.379Z,44
2017-02-01T07:05:38.027Z,44
2017-02-01T07:06:18.685Z,52
2017-02-01T07:06:59.334Z,52
2017-02-01T07:07:39.992Z,60
2017-02-01T07:08:20.638Z,60
2017-02-01T07:09:01.289Z,60
2017-02-01T07:09:41.950Z,64
2017-02-01T07:10:22.601Z,72
2017-02-01T07:11:03.249Z,76
2017-02-01T07:11:43.871Z,80
2017-02-01T07:12:24.552Z,84
2017-02-01T07:13:05.204Z,88
2017-02-01T07:13:45.861Z,92
2017-02-01T07:14:26.514Z,92
2017-02-01T07:15:07.163Z,100
2017-02-01T07:15:47.823Z,104
2017-02-01T07:16:28.472Z,108
2017-02-01T07:17:09.130Z,112
2017-02-01T07:17:49.781Z,120
2017-02-01T07:18:30.429Z,124
2017-02-01T07:19:11.085Z,128
2017-02-01T07:19:51.738Z,140
2017-02-01T07:20:32.385Z,148
2017-02-01T07:21:13.045Z,152
2017-02-01T07:21:53.700Z,156
2017-02-01T07:22:34.353Z,160
2017-02-01T07:23:15.077Z,168
2017-02-01T07:23:55.824Z,168
2017-02-01T07:24:36.478Z,172
2017-02-01T07:25:17.240Z,176
2017-02-01T07:25:57.992Z,180
2017-02-01T07:26:38.749Z,192
2017-02-01T07:27:19.506Z,204
2017-02-01T07:28:00.258Z,216
2017-02-01T07:28:41.013Z,228
2017-02-01T07:29:21.771Z,240
2017-02-01T07:30:02.526Z,252
2017-02-01T07:30:43.269Z,260
2017-02-01T07:31:24.034Z,268
2017-02-01T07:32:04.786Z,280
2017-02-01T07:32:45.540Z,280
2017-02-01T07:33:26.303Z,280
2017-02-01T07:34:07.056Z,280
2017-02-01T07:34:47.812Z,284
2017-02-01T07:35:28.564Z,292
2017-02-01T07:36:09.318Z,308
2017-02-01T07:36:50.080Z,324
2017-02-01T07:37:30.645Z,336
2017-02-01T07:38:11.437Z,340
2017-02-01T07:38:52.140Z,344
2017-02-01T07:39:32.895Z,360
2017-02-01T07:40:13.476Z,372
2017-02-01T07:40:54.249Z,388
2017-02-01T07:41:34.954Z,400
2017-02-01T07:42:15.742Z,404
2017-02-01T07:42:56.301Z,404
2017-02-01T07:43:37.070Z,404
2017-02-01T07:44:17.774Z,424
2017-02-01T07:44:58.525Z,440
2017-02-01T07:45:39.098Z,452
2017-02-01T07:46:19.882Z,452
2017-02-01T07:47:00.592Z,452
2017-02-01T07:47:41.343Z,460
2017-02-01T07:48:22.105Z,468
2017-02-01T07:49:02.865Z,476
2017-02-01T07:49:43.607Z,488
2017-02-01T07:50:24.376Z,496
2017-02-01T07:51:05.126Z,508
2017-02-01T07:51:45.894Z,512
2017-02-01T07:52:26.513Z,504
2017-02-01T07:53:07.295Z,500
2017-02-01T07:53:47.928Z,508
2017-02-01T07:54:28.680Z,512
2017-02-01T07:55:09.445Z,520
2017-02-01T07:55:50.104Z,536
2017-02-01T07:56:30.756Z,544
2017-02-01T07:57:11.505Z,552
2017-02-01T07:57:52.292Z,560
2017-02-01T07:58:32.863Z,596
2017-02-01T07:59:13.619Z,620
2017-02-01T07:59:54.231Z,636
2017-02-01T08:00:34.972Z,640
2017-02-01T08:01:15.547Z,644
2017-02-01T08:01:56.345Z,668
2017-02-01T08:02:37.043Z,696
2017-02-01T08:03:17.623Z,720
2017-02-01T08:03:58.249Z,728
2017-02-01T08:04:38.899Z,728
2017-02-01T08:05:19.465Z,732
2017-02-01T08:06:00.092Z,756
2017-02-01T08:06:40.855Z,792
2017-02-01T08:07:21.432Z,820
2017-02-01T08:08:02.078Z,812
2017-02-01T08:08:42.715Z,800
2017-02-01T08:09:23.372Z,796
2017-02-01T08:10:04.014Z,824
2017-02-01T08:10:44.681Z,840
2017-02-01T08:11:25.359Z,840
2017-02-01T08:12:05.975Z,836
2017-02-01T08:12:46.631Z,844
2017-02-01T08:13:27.292Z,864
2017-02-01T08:14:07.927Z,896
2017-02-01T08:14:48.562Z,1024
2017-02-01T08:15:29.248Z,940
2017-02-01T08:16:10.041Z,960
2017-02-01T08:16:51.784Z,996
2017-02-01T08:17:32.522Z,1028
2017-02-01T08:18:13.086Z,1036
2017-02-01T08:18:53.833Z,1048
2017-02-01T08:19:34.579Z,1040
2017-02-01T08:20:15.162Z,1012
2017-02-01T08:20:55.882Z,996
2017-02-01T08:21:36.670Z,1008
2017-02-01T08:22:17.265Z,1164
2017-02-01T08:22:57.940Z,1200
2017-02-01T08:23:38.701Z,1204
2017-02-01T08:24:19.466Z,1116
2017-02-01T08:25:00.227Z,1192
2017-02-01T08:25:40.977Z,1256
2017-02-01T08:26:22.755Z,1268
2017-02-01T08:27:03.515Z,1280
2017-02-01T08:27:44.250Z,1308
2017-02-01T08:28:25.016Z,1308
2017-02-01T08:29:05.788Z,1316
2017-02-01T08:29:46.526Z,1328
2017-02-01T08:30:27.277Z,1356
2017-02-01T08:31:08.044Z,1356
2017-02-01T08:31:48.791Z,1336
2017-02-01T08:32:29.543Z,1288
2017-02-01T08:33:10.112Z,1320
2017-02-01T08:33:50.805Z,1352
2017-02-01T08:34:31.497Z,1344
2017-02-01T08:35:12.272Z,1344
2017-02-01T08:35:52.882Z,1332
2017-02-01T08:36:33.631Z,1316
2017-02-01T08:37:14.321Z,1352
2017-02-01T08:37:54.973Z,1424
2017-02-01T08:38:35.727Z,1460
2017-02-01T08:39:16.519Z,1484
2017-02-01T08:39:57.242Z,1464
2017-02-01T08:40:39.029Z,1468
2017-02-01T08:41:19.777Z,1552
2017-02-01T08:42:00.525Z,1612
2017-02-01T08:42:41.110Z,1620
2017-02-01T08:43:22.864Z,1644
2017-02-01T08:44:03.622Z,1672
2017-02-01T08:44:44.209Z,1692
2017-02-01T08:45:24.935Z,1700
2017-02-01T08:46:05.681Z,1728
2017-02-01T08:46:46.281Z,1776
2017-02-01T08:47:26.976Z,1820
2017-02-01T08:48:07.736Z,1876
2017-02-01T08:48:48.386Z,1980
2017-02-01T08:49:29.051Z,2156
2017-02-01T08:50:09.707Z,2296
2017-02-01T08:50:50.349Z,2408
2017-02-01T08:51:30.990Z,2460
2017-02-01T08:52:11.667Z,2464
2017-02-01T08:52:52.308Z,2592
2017-02-01T08:53:32.902Z,2704
2017-02-01T08:54:13.601Z,2924
2017-02-01T08:54:54.440Z,2920
2017-02-01T08:55:35.124Z,2876
2017-02-01T08:56:15.685Z,2872
2017-02-01T08:56:56.275Z,2924
2017-02-01T08:57:36.864Z,2992
2017-02-01T08:58:17.542Z,2936
2017-02-01T08:58:58.110Z,2964
2017-02-01T08:59:39.712Z,2880
2017-02-01T09:00:20.317Z,2908
2017-02-01T09:01:01.996Z,2988
2017-02-01T09:01:42.633Z,3004
2017-02-01T09:02:24.264Z,2928
2017-02-01T09:03:04.889Z,2764
2017-02-01T09:03:45.497Z,2776
2017-02-01T09:04:26.163Z,2812
2017-02-01T09:05:06.829Z,2820
2017-02-01T09:05:47.496Z,2716
2017-02-01T09:06:29.150Z,2680
2017-02-01T09:07:09.821Z,2704
2017-02-01T09:07:50.483Z,2660
2017-02-01T09:08:31.140Z,2632
2017-02-01T09:09:11.756Z,2620
2017-02-01T09:09:52.348Z,2696
2017-02-01T09:10:32.977Z,2728
2017-02-01T09:11:13.689Z,2744
2017-02-01T09:11:54.281Z,2856
2017-02-01T09:12:34.924Z,2880
2017-02-01T09:13:15.590Z,2840
2017-02-01T09:13:56.234Z,2836
2017-02-01T09:14:36.897Z,2772
2017-02-01T09:15:17.549Z,2652
2017-02-01T09:15:59.216Z,2604
2017-02-01T09:16:39.871Z,2616
2017-02-01T09:17:20.527Z,2612
2017-02-01T09:18:02.097Z,2588
2017-02-01T09:18:42.749Z,2652
2017-02-01T09:19:23.396Z,2708
2017-02-01T09:20:04.060Z,2724
2017-02-01T09:20:44.722Z,2724
2017-02-01T09:21:25.373Z,2700
2017-02-01T09:22:07.967Z,2680
2017-02-01T09:22:48.545Z,2760
2017-02-01T09:23:29.154Z,2864
2017-02-01T09:24:09.825Z,3016
2017-02-01T09:24:50.379Z,3060
2017-02-01T09:25:31.027Z,2976
2017-02-01T09:26:11.684Z,2980
2017-02-01T09:26:52.264Z,3004
2017-02-01T09:27:32.880Z,2980
2017-02-01T09:28:13.534Z,2904
2017-02-01T09:28:54.190Z,2920
2017-02-01T09:29:34.842Z,2956
2017-02-01T09:30:16.536Z,2960
2017-02-01T09:30:57.164Z,2908
2017-02-01T09:31:37.819Z,2896
2017-02-01T09:32:18.387Z,2932
2017-02-01T09:32:58.977Z,2976
2017-02-01T09:33:39.579Z,2976
2017-02-01T09:34:20.229Z,2892
2017-02-01T09:35:00.793Z,2820
2017-02-01T09:35:41.380Z,2844
2017-02-01T09:36:21.971Z,2884
2017-02-01T09:37:02.636Z,2832
2017-02-01T09:37:43.290Z,2576
2017-02-01T09:38:23.948Z,2432
2017-02-01T09:39:05.622Z,2492
2017-02-01T09:39:46.271Z,2712
2017-02-01T09:40:26.929Z,2924
2017-02-01T09:41:07.576Z,3020
2017-02-01T09:41:48.228Z,3128
2017-02-01T09:42:28.884Z,3116
2017-02-01T09:43:09.533Z,3180
2017-02-01T09:43:50.179Z,3152
2017-02-01T09:44:30.840Z,3084
2017-02-01T09:45:11.495Z,2968
2017-02-01T09:45:52.148Z,2968
2017-02-01T09:46:32.803Z,3064
2017-02-01T09:47:13.382Z,3216
2017-02-01T09:47:53.956Z,3156
2017-02-01T09:48:34.532Z,3052
2017-02-01T09:49:15.084Z,3148